Time;durP1;ratioP1;P1;durP2;ratioP2;P2;SDS_P1;SDS_P2;PMS_P1;PMS_P2;Temp;Humidity;BMP_temperature;BMP_pressure;BME280_temperature;BME280_humidity;BME280_pressure;Samples;Min_cycle;Max_cycle;Signal;HPM_P1;HPM_P2
2022/04/05 00:01:25;;;;;;;5.95;1.35;;;9.40;95.20;;;;;;4995425;28;92480;-70
2022/04/05 00:03:52;;;;;;;4.55;1.50;;;9.40;95.20;;;;;;4992781;28;97999;-70
2022/04/05 00:06:19;;;;;;;4.38;1.67;;;9.40;95.30;;;;;;4994165;28;94029;-70
2022/04/05 00:08:46;;;;;;;7.20;2.00;;;9.40;95.40;;;;;;4995029;28;97113;-70
2022/04/05 00:11:13;;;;;;;4.53;1.67;;;9.40;95.40;;;;;;4993731;28;92503;-70
2022/04/05 00:13:40;;;;;;;4.13;1.50;;;9.40;95.40;;;;;;4995310;28;93282;-70
2022/04/05 00:16:07;;;;;;;3.55;1.55;;;9.40;95.40;;;;;;4996228;28;92905;-70
2022/04/05 00:18:34;;;;;;;2.55;1.50;;;9.40;95.40;;;;;;4997857;28;92846;-70
2022/04/05 00:21:01;;;;;;;4.82;1.60;;;9.40;95.30;;;;;;4997848;28;91810;-70
2022/04/05 00:23:28;;;;;;;4.43;1.50;;;9.30;95.40;;;;;;4998618;28;93283;-72
2022/04/05 00:25:55;;;;;;;3.72;1.30;;;9.30;95.40;;;;;;4997527;28;92630;-72
2022/04/05 00:28:22;;;;;;;6.75;1.48;;;9.30;95.40;;;;;;5012980;28;94899;-70
2022/04/05 00:30:49;;;;;;;4.47;1.33;;;9.30;95.40;;;;;;4997456;28;92604;-70
2022/04/05 00:33:16;;;;;;;2.03;1.30;;;9.30;95.40;;;;;;4997384;28;96041;-72
2022/04/05 00:35:43;;;;;;;2.95;1.38;;;9.30;95.40;;;;;;4998524;28;93110;-71
2022/04/05 00:38:10;;;;;;;3.92;1.50;;;9.30;95.30;;;;;;5004517;28;92440;-72
2022/04/05 00:40:37;;;;;;;4.07;1.63;;;9.30;95.40;;;;;;4999934;28;95551;-72
2022/04/05 00:43:05;;;;;;;7.22;1.80;;;9.30;95.50;;;;;;5017310;28;93305;-72
2022/04/05 00:45:34;;;;;;;3.50;1.40;;;9.30;95.40;;;;;;5001136;28;92699;-72
2022/04/05 00:48:02;;;;;;;3.95;1.88;;;9.30;95.40;;;;;;5000535;28;92633;-72
2022/04/05 00:50:35;;;;;;;3.88;1.15;;;9.40;95.40;;;;;;5000846;28;92952;-71
2022/04/05 00:53:05;;;;;;;5.28;1.35;;;9.40;95.30;;;;;;5017241;28;95711;-72
2022/04/05 00:55:33;;;;;;;3.63;1.60;;;9.40;95.30;;;;;;5018251;28;95425;-72
2022/04/05 00:58:02;;;;;;;6.00;1.50;;;9.40;95.30;;;;;;5018424;28;92856;-72
2022/04/05 01:00:30;;;;;;;5.63;1.40;;;9.30;95.30;;;;;;5018041;28;92421;-72
2022/04/05 01:02:58;;;;;;;4.85;1.80;;;9.30;95.30;;;;;;5000291;28;93275;-70
2022/04/05 01:05:27;;;;;;;5.10;1.40;;;9.40;95.30;;;;;;5018100;28;93007;-72
2022/04/05 01:07:59;;;;;;;5.40;1.50;;;9.40;95.30;;;;;;5000123;28;92814;-72
2022/04/05 01:10:28;;;;;;;6.57;1.50;;;9.40;95.30;;;;;;5000477;28;91673;-72
2022/04/05 01:12:56;;;;;;;6.53;1.10;;;9.40;95.20;;;;;;4999578;28;96285;-70
2022/04/05 01:15:23;;;;;;;6.38;1.60;;;9.40;95.20;;;;;;5000254;28;95535;-70
2022/04/05 01:17:51;;;;;;;4.10;1.38;;;9.40;95.20;;;;;;4998353;28;102868;-70
2022/04/05 01:20:18;;;;;;;3.15;1.10;;;9.30;95.20;;;;;;4983845;28;92867;-72
2022/04/05 01:22:47;;;;;;;5.90;1.45;;;9.30;95.20;;;;;;4999526;28;95706;-72
2022/04/05 01:25:15;;;;;;;5.53;1.67;;;9.30;95.20;;;;;;5016427;28;92982;-72
2022/04/05 01:27:42;;;;;;;4.95;1.50;;;9.30;95.20;;;;;;5017700;28;93007;-70
2022/04/05 01:30:10;;;;;;;4.78;1.15;;;9.30;95.30;;;;;;5018010;28;92430;-72
2022/04/05 01:32:38;;;;;;;3.53;1.42;;;9.30;95.30;;;;;;4999046;28;98254;-70
2022/04/05 01:35:06;;;;;;;5.57;1.23;;;9.30;95.30;;;;;;5000310;28;92907;-69
2022/04/05 01:37:33;;;;;;;6.80;1.70;;;9.30;95.30;;;;;;5017533;28;92371;-70
2022/04/05 01:40:01;;;;;;;4.07;1.33;;;9.30;95.20;;;;;;4999383;28;93867;-71
2022/04/05 01:42:29;;;;;;;4.82;1.00;;;9.30;95.20;;;;;;5014938;28;95750;-72
2022/04/05 01:44:56;;;;;;;5.05;1.40;;;9.30;95.10;;;;;;5017344;28;95907;-72
2022/04/05 01:47:23;;;;;;;6.18;1.23;;;9.30;95.00;;;;;;4982654;28;92545;-72
2022/04/05 01:49:50;;;;;;;5.20;1.52;;;9.30;95.00;;;;;;5017564;28;92347;-72
2022/04/05 01:52:18;;;;;;;8.07;1.63;;;9.30;95.10;;;;;;5017415;28;93212;-72
2022/04/05 01:54:45;;;;;;;3.78;1.25;;;9.30;95.00;;;;;;5016799;28;105930;-72
2022/04/05 01:57:13;;;;;;;5.10;1.52;;;9.30;95.00;;;;;;4999178;28;92513;-72
2022/04/05 01:59:40;;;;;;;4.32;1.30;;;9.30;95.30;;;;;;5017569;28;91652;-70
2022/04/05 02:02:09;;;;;;;7.43;1.30;;;9.30;95.00;;;;;;5015556;28;95797;-71
2022/04/05 02:04:38;;;;;;;6.72;1.88;;;9.30;95.00;;;;;;5017161;28;93013;-72
2022/04/05 02:07:17;;;;;;;4.78;1.48;;;9.30;94.90;;;;;;4997978;28;94876;-72
2022/04/05 02:09:48;;;;;;;6.57;1.55;;;9.30;95.00;;;;;;5015430;28;92554;-70
2022/04/05 02:12:17;;;;;;;6.00;1.13;;;9.20;94.90;;;;;;4999292;28;95719;-70
2022/04/05 02:14:54;;;;;;;5.20;1.45;;;9.20;95.00;;;;;;5017018;28;92967;-70
2022/04/05 02:17:29;;;;;;;3.75;1.27;;;9.20;94.90;;;;;;4999507;28;92592;-70
2022/04/05 02:20:00;;;;;;;5.03;1.45;;;9.20;95.00;;;;;;4982997;28;92956;-70
2022/04/05 02:22:29;;;;;;;4.68;1.70;;;9.20;94.90;;;;;;4998830;28;95399;-72
2022/04/05 02:25:03;;;;;;;4.43;1.50;;;9.20;94.90;;;;;;5015769;28;95984;-71
2022/04/05 02:27:35;;;;;;;5.40;1.70;;;9.20;94.90;;;;;;5000311;28;92444;-70
2022/04/05 02:30:02;;;;;;;2.97;1.20;;;9.20;94.90;;;;;;5015453;28;92525;-70
2022/04/05 02:32:30;;;;;;;5.05;2.00;;;9.20;95.00;;;;;;4997612;28;97128;-70
2022/04/05 02:34:58;;;;;;;5.25;1.50;;;9.20;94.90;;;;;;4998372;28;97396;-70
2022/04/05 02:37:26;;;;;;;9.30;1.83;;;9.20;95.10;;;;;;4998669;28;92457;-72
2022/04/05 02:39:55;;;;;;;4.63;1.50;;;9.20;95.00;;;;;;4998096;28;92494;-72
2022/04/05 02:42:22;;;;;;;8.50;2.05;;;9.10;94.90;;;;;;5015137;28;95142;-72
2022/04/05 02:44:50;;;;;;;8.35;1.83;;;9.20;95.10;;;;;;4998940;28;93954;-70
2022/04/05 02:47:17;;;;;;;6.78;1.67;;;9.10;95.10;;;;;;4998765;28;92538;-70
2022/04/05 02:49:48;;;;;;;7.13;1.45;;;9.10;95.10;;;;;;4998692;28;91692;-70
2022/04/05 02:52:22;;;;;;;5.30;2.05;;;9.10;95.00;;;;;;4998491;28;94104;-70
2022/04/05 02:54:55;;;;;;;8.50;2.13;;;9.00;95.00;;;;;;4998132;28;95040;-71
2022/04/05 02:57:24;;;;;;;5.80;1.80;;;9.00;95.10;;;;;;4997371;28;94878;-70
2022/04/05 02:59:54;;;;;;;8.57;1.80;;;9.00;95.20;;;;;;4998397;28;92543;-70
2022/04/05 03:02:21;;;;;;;8.00;1.90;;;9.00;95.20;;;;;;5014503;28;95950;-70
2022/04/05 03:04:49;;;;;;;8.75;2.25;;;9.00;95.10;;;;;;4981515;28;95477;-70
2022/04/05 03:07:18;;;;;;;5.70;2.22;;;9.00;95.20;;;;;;5015029;28;92522;-70
2022/04/05 03:09:46;;;;;;;4.80;1.70;;;9.10;95.10;;;;;;4998328;28;92507;-72
2022/04/05 03:12:15;;;;;;;8.13;1.90;;;9.10;95.10;;;;;;5015071;28;95449;-71
2022/04/05 03:14:45;;;;;;;10.60;2.13;;;9.10;95.30;;;;;;4998469;28;95518;-72
2022/04/05 03:17:14;;;;;;;6.88;2.13;;;9.10;95.10;;;;;;4998225;28;92469;-71
2022/04/05 03:19:42;;;;;;;5.78;1.60;;;9.10;95.00;;;;;;4998228;28;92441;-70
2022/04/05 03:22:11;;;;;;;6.93;2.03;;;9.10;95.00;;;;;;4964230;28;98099;-71
2022/04/05 03:24:38;;;;;;;6.78;1.92;;;9.10;95.10;;;;;;4998282;28;95397;-72
2022/04/05 03:27:06;;;;;;;9.38;2.20;;;9.10;95.10;;;;;;4997869;28;92584;-71
2022/04/05 03:29:33;;;;;;;9.10;1.85;;;9.10;95.10;;;;;;4998010;28;92928;-70
2022/04/05 03:32:01;;;;;;;8.68;1.90;;;9.10;95.10;;;;;;5014194;28;95789;-72
2022/04/05 03:34:29;;;;;;;11.55;2.67;;;9.20;95.20;;;;;;4997801;28;95673;-70
2022/04/05 03:36:57;;;;;;;5.68;1.98;;;9.20;95.20;;;;;;4997600;28;92398;-71
2022/04/05 03:39:24;;;;;;;9.10;2.10;;;9.20;95.20;;;;;;4997811;28;91712;-72
2022/04/05 03:41:52;;;;;;;5.18;1.77;;;9.20;95.30;;;;;;5014243;28;95489;-70
2022/04/05 03:44:19;;;;;;;6.38;2.25;;;9.20;95.20;;;;;;5015767;28;93053;-72
2022/04/05 03:46:49;;;;;;;5.90;1.92;;;9.20;95.20;;;;;;5013286;28;95310;-70
2022/04/05 03:49:17;;;;;;;12.25;2.63;;;9.20;95.10;;;;;;4997720;28;92526;-70
2022/04/05 03:51:47;;;;;;;12.38;2.75;;;9.20;95.10;;;;;;5013063;28;95161;-70
2022/04/05 03:54:15;;;;;;;9.93;2.55;;;9.20;95.10;;;;;;5013988;28;95226;-70
2022/04/05 03:56:44;;;;;;;9.55;2.08;;;9.20;95.10;;;;;;4997616;28;92551;-70
2022/04/05 03:59:12;;;;;;;13.95;2.42;;;9.20;95.00;;;;;;4997424;28;93109;-70
2022/04/05 04:01:39;;;;;;;10.40;2.10;;;9.10;95.00;;;;;;4997367;28;94548;-71
2022/04/05 04:04:08;;;;;;;8.27;2.03;;;9.20;95.00;;;;;;4997598;28;95317;-72
2022/04/05 04:06:35;;;;;;;9.73;2.10;;;9.10;95.00;;;;;;4997581;28;92389;-72
2022/04/05 04:09:03;;;;;;;9.30;1.88;;;9.10;95.00;;;;;;4981014;28;92484;-71
2022/04/05 04:11:30;;;;;;;10.30;2.33;;;9.10;94.90;;;;;;4996070;28;98007;-70
2022/04/05 04:13:58;;;;;;;9.75;2.30;;;9.10;95.00;;;;;;4997229;28;97696;-69
2022/04/05 04:16:27;;;;;;;11.48;1.85;;;9.10;94.80;;;;;;4997532;28;92478;-70
2022/04/05 04:18:54;;;;;;;5.82;1.75;;;9.10;94.80;;;;;;4997057;28;92463;-70
2022/04/05 04:21:23;;;;;;;12.18;2.75;;;9.00;94.80;;;;;;5013954;28;95650;-71
2022/04/05 04:23:50;;;;;;;10.60;2.05;;;9.00;94.80;;;;;;4997174;28;95561;-72
2022/04/05 04:26:18;;;;;;;7.68;2.42;;;9.00;94.90;;;;;;4997061;28;92499;-70
2022/04/05 04:28:49;;;;;;;14.25;2.17;;;9.00;94.90;;;;;;5015980;28;91717;-71
2022/04/05 04:31:16;;;;;;;7.53;2.92;;;9.00;94.90;;;;;;5013796;28;94840;-72
2022/04/05 04:33:43;;;;;;;9.18;2.95;;;9.00;95.00;;;;;;5013941;28;93015;-71
2022/04/05 04:36:11;;;;;;;10.30;2.70;;;9.00;95.00;;;;;;4996098;28;94825;-71
2022/04/05 04:38:38;;;;;;;8.63;2.90;;;9.00;95.00;;;;;;4996962;28;92394;-71
2022/04/05 04:41:05;;;;;;;11.43;3.05;;;9.00;95.00;;;;;;5014621;28;93194;-72
2022/04/05 04:43:32;;;;;;;9.27;3.10;;;9.00;95.10;;;;;;5014970;28;93052;-70
2022/04/05 04:46:00;;;;;;;12.23;3.72;;;9.00;95.10;;;;;;4997380;28;92535;-70
2022/04/05 04:48:28;;;;;;;8.93;2.80;;;9.00;95.10;;;;;;4997110;28;92459;-70
2022/04/05 04:50:55;;;;;;;10.40;2.42;;;9.00;95.10;;;;;;5013426;28;95372;-70
2022/04/05 04:53:21;;;;;;;13.05;2.70;;;9.00;95.00;;;;;;5015060;28;92971;-71
2022/04/05 04:55:49;;;;;;;12.75;2.65;;;9.00;94.90;;;;;;5014992;28;92533;-70
2022/04/05 04:58:35;;;;;;;8.02;2.03;;;9.00;94.90;;;;;;5015092;28;92476;-70
2022/04/05 05:01:02;;;;;;;7.03;2.40;;;9.00;94.90;;;;;;5013186;28;95578;-72
2022/04/05 05:03:29;;;;;;;9.98;2.60;;;8.90;94.90;;;;;;4982939;28;97915;-72
2022/04/05 05:05:56;;;;;;;11.82;2.28;;;8.90;94.90;;;;;;5018088;28;92467;-70
2022/04/05 05:08:23;;;;;;;11.73;2.55;;;8.90;94.80;;;;;;5000338;28;92524;-70
2022/04/05 05:10:50;;;;;;;14.88;3.65;;;8.90;94.80;;;;;;5018324;28;92530;-72
2022/04/05 05:13:17;;;;;;;10.20;2.25;;;8.90;94.90;;;;;;4999703;28;95599;-71
2022/04/05 05:15:45;;;;;;;8.13;2.33;;;8.90;94.90;;;;;;5000117;28;92499;-71
2022/04/05 05:18:12;;;;;;;13.32;2.83;;;8.90;94.90;;;;;;5018072;28;96862;-70
2022/04/05 05:20:39;;;;;;;9.88;3.00;;;8.90;94.90;;;;;;5017841;28;93153;-70
2022/04/05 05:23:06;;;;;;;15.05;3.55;;;9.00;94.90;;;;;;4999413;28;95672;-71
2022/04/05 05:25:33;;;;;;;8.93;2.83;;;9.00;94.90;;;;;;4998636;28;94835;-70
2022/04/05 05:28:00;;;;;;;9.35;2.60;;;9.00;94.90;;;;;;5018138;28;92827;-72
2022/04/05 05:30:28;;;;;;;12.43;2.83;;;9.00;94.90;;;;;;5016392;28;93180;-72
2022/04/05 05:32:55;;;;;;;9.88;3.25;;;9.10;94.90;;;;;;4999804;28;92917;-72
2022/04/05 05:35:22;;;;;;;10.10;2.30;;;9.10;95.00;;;;;;5017860;28;92555;-70
2022/04/05 05:37:50;;;;;;;15.82;2.53;;;9.10;94.90;;;;;;5017547;28;92512;-72
2022/04/05 05:40:18;;;;;;;15.60;3.10;;;9.20;94.90;;;;;;5017169;28;98435;-72
2022/04/05 05:42:50;;;;;;;13.45;3.30;;;9.20;94.80;;;;;;5017881;28;93090;-70
2022/04/05 05:45:18;;;;;;;12.63;3.90;;;9.30;94.80;;;;;;5017481;28;92396;-70
2022/04/05 05:47:45;;;;;;;12.50;3.33;;;9.30;95.00;;;;;;5017152;28;101094;-70
2022/04/05 05:50:13;;;;;;;10.43;2.33;;;9.30;94.70;;;;;;4997986;28;98269;-70
2022/04/05 05:52:42;;;;;;;11.40;2.13;;;9.40;94.60;;;;;;4999264;28;96601;-72
2022/04/05 05:55:10;;;;;;;9.32;3.15;;;9.40;94.60;;;;;;4999621;28;93021;-72
2022/04/05 05:57:38;;;;;;;12.63;3.08;;;9.50;94.50;;;;;;4982904;28;92470;-72
2022/04/05 06:00:08;;;;;;;11.73;3.22;;;9.50;94.50;;;;;;4999606;28;92859;-72
2022/04/05 06:02:39;;;;;;;9.57;2.65;;;9.60;94.40;;;;;;4999093;28;95264;-70
2022/04/05 06:05:08;;;;;;;8.85;2.88;;;9.60;94.30;;;;;;5016246;28;92887;-71
2022/04/05 06:07:41;;;;;;;10.25;2.30;;;9.60;94.30;;;;;;5016898;28;91704;-72
2022/04/05 06:10:10;;;;;;;13.95;2.50;;;9.60;94.30;;;;;;4999267;28;93259;-72
2022/04/05 06:12:39;;;;;;;12.75;2.92;;;9.60;94.20;;;;;;5017111;28;92425;-70
2022/04/05 06:15:08;;;;;;;12.15;3.17;;;9.70;94.30;;;;;;5015044;28;94831;-70
2022/04/05 06:17:37;;;;;;;7.88;2.78;;;9.80;94.30;;;;;;5017319;28;92885;-70
2022/04/05 06:20:06;;;;;;;12.27;3.38;;;9.80;94.20;;;;;;4999192;28;93275;-72
2022/04/05 06:22:53;;;;;;;7.30;2.72;;;9.90;94.20;;;;;;5016307;28;97822;-72
2022/04/05 06:25:28;;;;;;;10.00;2.90;;;10.00;94.10;;;;;;5017181;28;92450;-70
2022/04/05 06:28:02;;;;;;;8.98;4.63;;;10.00;94.10;;;;;;5017252;28;92432;-70
2022/04/05 06:30:32;;;;;;;8.77;3.47;;;10.00;94.00;;;;;;4998576;28;94975;-70
2022/04/05 06:33:12;;;;;;;8.10;3.63;;;10.10;94.00;;;;;;5017036;28;92950;-70
2022/04/05 06:35:43;;;;;;;11.20;3.42;;;10.10;94.00;;;;;;4999382;28;92460;-72
2022/04/05 06:38:11;;;;;;;8.18;3.00;;;10.10;94.00;;;;;;4998114;28;92604;-72
2022/04/05 06:40:41;;;;;;;6.65;2.90;;;10.10;94.00;;;;;;4997578;28;95611;-72
2022/04/05 06:43:08;;;;;;;8.15;3.20;;;10.10;94.00;;;;;;5016216;28;95827;-70
2022/04/05 06:45:35;;;;;;;9.27;3.20;;;10.10;94.00;;;;;;5014907;28;92529;-70
2022/04/05 06:48:03;;;;;;;9.68;3.17;;;10.20;93.90;;;;;;4998733;28;92465;-70
2022/04/05 06:50:30;;;;;;;7.10;2.58;;;10.20;93.80;;;;;;5016267;28;93178;-70
2022/04/05 06:52:59;;;;;;;7.30;2.75;;;10.20;93.70;;;;;;5016575;28;92975;-70
2022/04/05 06:55:27;;;;;;;8.82;3.13;;;10.20;93.60;;;;;;5016427;28;92446;-70
2022/04/05 06:57:55;;;;;;;7.88;2.58;;;10.20;93.60;;;;;;5015690;28;91792;-70
2022/04/05 07:00:23;;;;;;;7.47;2.97;;;10.30;93.60;;;;;;4997937;28;95842;-72
2022/04/05 07:02:54;;;;;;;9.35;3.10;;;10.30;93.40;;;;;;5016422;28;93066;-72
2022/04/05 07:05:23;;;;;;;8.90;3.45;;;10.30;93.30;;;;;;4997132;28;94910;-72
2022/04/05 07:07:50;;;;;;;8.82;2.47;;;10.40;93.30;;;;;;5015002;28;92499;-72
2022/04/05 07:10:18;;;;;;;8.93;2.72;;;10.40;93.20;;;;;;5016343;28;93096;-70
2022/04/05 07:12:46;;;;;;;7.30;2.53;;;10.50;93.10;;;;;;4997665;28;94460;-70
2022/04/05 07:15:14;;;;;;;6.15;2.08;;;10.60;92.90;;;;;;5014838;28;100403;-70
2022/04/05 07:17:41;;;;;;;8.25;2.40;;;10.70;92.70;;;;;;4998008;28;92582;-70
2022/04/05 07:20:28;;;;;;;10.50;2.60;;;10.90;92.60;;;;;;5016084;28;93141;-70
2022/04/05 07:22:55;;;;;;;7.50;2.25;;;11.10;92.30;;;;;;5016319;28;93213;-70
2022/04/05 07:25:22;;;;;;;4.60;1.70;;;11.30;92.00;;;;;;4981116;28;92653;-72
2022/04/05 07:27:51;;;;;;;9.98;2.38;;;11.50;91.60;;;;;;4998014;28;92438;-72
2022/04/05 07:30:19;;;;;;;7.53;2.85;;;11.60;91.40;;;;;;5014558;28;95665;-72
2022/04/05 07:32:47;;;;;;;6.07;2.70;;;11.70;91.40;;;;;;4997685;28;97877;-72
2022/04/05 07:35:14;;;;;;;5.80;2.10;;;11.80;91.30;;;;;;5015971;28;93231;-72
2022/04/05 07:37:41;;;;;;;9.98;3.13;;;11.80;91.40;;;;;;5015186;28;92458;-72
2022/04/05 07:40:10;;;;;;;5.65;2.20;;;11.70;91.20;;;;;;4998003;28;93303;-72
2022/04/05 07:42:39;;;;;;;7.28;2.83;;;11.70;91.30;;;;;;4997293;28;95958;-72
2022/04/05 07:45:08;;;;;;;7.43;2.80;;;11.80;91.40;;;;;;5015857;28;92336;-72
2022/04/05 07:47:35;;;;;;;4.55;2.08;;;11.80;91.40;;;;;;5016019;28;91714;-72
2022/04/05 07:50:04;;;;;;;4.75;2.17;;;11.80;91.20;;;;;;5014309;28;95757;-72
2022/04/05 07:52:31;;;;;;;5.32;2.38;;;11.80;91.10;;;;;;5015405;28;92955;-72
2022/04/05 07:54:59;;;;;;;4.93;2.40;;;11.80;91.00;;;;;;4996365;28;99291;-72
2022/04/05 07:57:26;;;;;;;9.10;2.55;;;11.90;91.00;;;;;;5015671;28;92527;-72
2022/04/05 07:59:53;;;;;;;5.60;2.45;;;11.90;91.00;;;;;;5015388;28;93245;-72
2022/04/05 08:02:20;;;;;;;7.10;2.63;;;11.80;90.80;;;;;;5015482;28;92894;-70
2022/04/05 08:04:54;;;;;;;5.32;2.17;;;11.90;90.70;;;;;;4999019;28;92406;-70
2022/04/05 08:07:21;;;;;;;6.97;2.42;;;11.90;90.70;;;;;;5015609;28;92453;-70
2022/04/05 08:09:48;;;;;;;8.07;2.13;;;12.00;90.60;;;;;;4997395;28;93298;-72
2022/04/05 08:12:16;;;;;;;3.42;1.90;;;12.00;90.50;;;;;;5015684;28;92907;-72
2022/04/05 08:14:43;;;;;;;6.95;1.92;;;12.10;90.40;;;;;;4997606;28;92476;-72
2022/04/05 08:17:10;;;;;;;5.20;1.63;;;12.10;90.40;;;;;;5015279;28;92521;-70
2022/04/05 08:19:37;;;;;;;6.65;2.28;;;12.10;90.30;;;;;;5013610;28;97660;-70
2022/04/05 08:22:04;;;;;;;5.75;1.60;;;12.10;90.20;;;;;;5014959;28;95311;-70
2022/04/05 08:24:31;;;;;;;5.57;1.90;;;12.10;90.30;;;;;;4997559;28;92514;-70
2022/04/05 08:27:00;;;;;;;4.18;1.77;;;12.10;90.40;;;;;;4981260;28;92541;-72
2022/04/05 08:29:27;;;;;;;9.15;2.30;;;12.20;90.30;;;;;;4996761;28;94187;-72
2022/04/05 08:31:54;;;;;;;5.55;1.92;;;12.20;90.50;;;;;;4997115;28;92919;-72
2022/04/05 08:34:21;;;;;;;6.35;2.60;;;12.30;90.10;;;;;;4997472;28;92467;-72
2022/04/05 08:36:48;;;;;;;5.22;2.45;;;12.40;90.00;;;;;;5015669;28;91704;-70
2022/04/05 08:39:15;;;;;;;6.53;2.00;;;12.50;89.50;;;;;;5017938;28;92623;-70
2022/04/05 08:41:44;;;;;;;7.50;2.42;;;12.50;89.10;;;;;;5000002;28;98229;-72
2022/04/05 08:44:16;;;;;;;5.78;1.98;;;12.60;89.10;;;;;;4999727;28;94952;-70
2022/04/05 08:46:46;;;;;;;4.45;1.70;;;12.70;89.10;;;;;;5018510;28;92410;-70
2022/04/05 08:49:13;;;;;;;5.68;2.15;;;12.80;88.80;;;;;;5000399;28;95931;-72
2022/04/05 08:51:40;;;;;;;5.60;1.92;;;12.90;88.10;;;;;;5018324;28;92976;-70
2022/04/05 08:54:07;;;;;;;8.23;2.63;;;13.10;87.90;;;;;;4983614;28;102666;-70
2022/04/05 08:56:34;;;;;;;5.30;2.22;;;13.20;87.60;;;;;;5018293;28;92488;-70
2022/04/05 08:59:01;;;;;;;5.03;2.10;;;13.30;87.30;;;;;;5000034;28;95766;-70
2022/04/05 09:01:29;;;;;;;3.88;1.73;;;13.40;86.60;;;;;;4984088;28;95911;-70
2022/04/05 09:03:57;;;;;;;3.28;1.75;;;13.40;86.20;;;;;;5018667;28;92663;-72
2022/04/05 09:06:29;;;;;;;2.45;1.70;;;13.40;86.00;;;;;;5000666;28;92576;-70
2022/04/05 09:09:13;;;;;;;7.80;2.53;;;13.30;85.80;;;;;;5016535;28;95609;-72
2022/04/05 09:11:47;;;;;;;6.95;2.15;;;13.40;86.10;;;;;;5018039;28;95408;-72
2022/04/05 09:14:27;;;;;;;4.82;2.20;;;13.40;86.20;;;;;;5000174;28;92473;-70
2022/04/05 09:17:08;;;;;;;4.80;1.77;;;13.40;86.10;;;;;;5018266;28;92370;-70
2022/04/05 09:19:37;;;;;;;2.63;1.85;;;13.50;85.50;;;;;;4999960;28;93873;-70
2022/04/05 09:22:04;;;;;;;5.05;1.88;;;13.50;85.60;;;;;;5017842;28;92903;-70
2022/04/05 09:24:36;;;;;;;3.85;1.75;;;13.70;85.30;;;;;;5017984;28;92488;-72
2022/04/05 09:27:04;;;;;;;6.22;1.95;;;13.90;84.70;;;;;;5000247;28;91725;-72
2022/04/05 09:29:43;;;;;;;5.20;1.52;;;14.00;84.60;;;;;;4999767;28;92617;-70
2022/04/05 09:32:30;;;;;;;3.58;1.67;;;14.30;83.80;;;;;;5018055;28;93153;-70
2022/04/05 09:34:57;;;;;;;4.05;1.65;;;14.40;83.50;;;;;;5015611;28;94804;-72
2022/04/05 09:37:26;;;;;;;4.80;1.90;;;14.70;82.90;;;;;;5017732;28;92375;-72
2022/04/05 09:39:55;;;;;;;5.53;1.52;;;14.90;82.10;;;;;;5015856;28;93634;-72
2022/04/05 09:42:22;;;;;;;4.25;2.33;;;15.00;81.40;;;;;;5017641;28;93032;-70
2022/04/05 09:44:49;;;;;;;3.42;1.38;;;15.10;81.00;;;;;;5016229;28;92450;-71
2022/04/05 09:47:21;;;;;;;3.88;1.50;;;15.20;81.00;;;;;;5016842;28;92929;-70
2022/04/05 09:49:49;;;;;;;4.20;1.85;;;15.20;80.40;;;;;;5016126;28;93677;-72
2022/04/05 09:52:30;;;;;;;3.28;1.60;;;15.10;80.30;;;;;;5017676;28;92906;-73
2022/04/05 09:55:18;;;;;;;6.32;2.22;;;15.20;80.10;;;;;;5017654;28;92433;-72
2022/04/05 09:57:46;;;;;;;1.65;1.27;;;15.10;80.00;;;;;;4999451;28;92530;-72
2022/04/05 10:00:17;;;;;;;4.57;1.50;;;15.10;80.40;;;;;;5016071;28;95643;-72
2022/04/05 10:03:01;;;;;;;7.20;1.67;;;15.20;80.60;;;;;;5015990;28;95595;-72
2022/04/05 10:05:29;;;;;;;3.03;1.55;;;15.20;80.20;;;;;;5017749;28;92391;-70
2022/04/05 10:07:57;;;;;;;4.90;1.30;;;15.20;80.80;;;;;;5016951;28;92480;-70
2022/04/05 10:10:24;;;;;;;4.18;1.77;;;15.20;81.00;;;;;;5016995;28;107140;-72
2022/04/05 10:12:51;;;;;;;2.70;1.80;;;15.20;80.50;;;;;;5017195;28;92979;-72
2022/04/05 10:15:21;;;;;;;2.80;1.25;;;15.20;80.60;;;;;;4982909;28;92448;-72
2022/04/05 10:17:49;;;;;;;2.00;1.40;;;15.10;80.50;;;;;;5017340;28;91811;-70
2022/04/05 10:20:17;;;;;;;1.85;1.00;;;15.00;81.20;;;;;;4998803;28;95925;-72
2022/04/05 10:22:53;;;;;;;2.97;1.85;;;15.00;82.10;;;;;;5016644;28;92708;-70
2022/04/05 10:25:22;;;;;;;3.80;1.70;;;15.00;82.90;;;;;;5016301;28;94873;-72
2022/04/05 10:27:49;;;;;;;3.58;1.80;;;15.00;83.50;;;;;;4998819;28;92497;-72
2022/04/05 10:30:24;;;;;;;2.20;1.70;;;15.00;84.00;;;;;;4998556;28;96032;-72
2022/04/05 10:33:14;;;;;;;4.60;1.60;;;15.10;84.20;;;;;;5015532;28;92883;-70
2022/04/05 10:35:50;;;;;;;2.63;1.23;;;15.10;84.30;;;;;;5016168;28;92570;-72
2022/04/05 10:38:18;;;;;;;1.35;1.08;;;15.10;84.60;;;;;;5016742;28;92622;-70
2022/04/05 10:41:12;;;;;;;2.00;1.35;;;15.00;84.90;;;;;;5016668;28;93170;-70
2022/04/05 10:43:40;;;;;;;1.95;0.93;;;15.10;85.30;;;;;;5016973;28;92948;-70
2022/04/05 10:46:08;;;;;;;2.83;1.20;;;15.00;85.40;;;;;;4999207;28;92403;-72
2022/04/05 10:48:35;;;;;;;1.35;1.17;;;15.00;85.70;;;;;;5016786;28;92453;-70
2022/04/05 10:51:02;;;;;;;1.75;1.02;;;15.00;86.30;;;;;;4997472;28;95660;-70
2022/04/05 10:56:31;;;;;;;1.42;0.80;;;15.10;86.40;;;;;;5016864;28;92477;-70
2022/04/05 10:59:05;;;;;;;0.80;0.80;;;15.00;86.80;;;;;;5016339;28;94455;-72
2022/04/05 11:01:43;;;;;;;0.90;0.90;;;15.00;86.60;;;;;;4997847;28;95812;-72
2022/04/05 11:04:20;;;;;;;1.23;1.20;;;15.10;86.60;;;;;;5015081;28;92931;-70
2022/04/05 11:06:59;;;;;;;1.20;1.17;;;15.10;86.60;;;;;;5016422;28;92367;-72
2022/04/05 11:09:43;;;;;;;2.20;1.15;;;15.10;86.40;;;;;;4998930;28;91805;-72
2022/04/05 11:12:42;;;;;;;1.25;1.15;;;15.10;86.90;;;;;;5015005;28;93267;-72
2022/04/05 11:15:13;;;;;;;1.10;1.10;;;15.20;86.70;;;;;;4988843;28;93216;-72
2022/04/05 11:17:42;;;;;;;1.25;1.15;;;15.20;86.80;;;;;;5015363;28;94839;-70
2022/04/05 11:20:11;;;;;;;2.17;1.20;;;15.20;86.50;;;;;;5016050;28;92841;-70
2022/04/05 11:22:38;;;;;;;1.10;1.10;;;15.10;87.00;;;;;;5016051;28;93435;-70
2022/04/05 11:25:09;;;;;;;1.60;1.38;;;15.10;87.30;;;;;;4997511;28;95662;-70
2022/04/05 11:27:49;;;;;;;1.10;1.00;;;15.00;87.60;;;;;;5016337;28;92478;-71
2022/04/05 11:30:45;;;;;;;0.95;0.95;;;15.20;86.70;;;;;;5014963;28;92469;-70
2022/04/05 11:33:21;;;;;;;1.45;1.35;;;15.30;86.50;;;;;;4997813;28;95890;-70
2022/04/05 11:35:57;;;;;;;1.50;1.40;;;15.40;86.20;;;;;;4998491;28;92979;-72
2022/04/05 11:38:28;;;;;;;1.10;1.00;;;15.60;86.00;;;;;;5010960;28;92623;-70
2022/04/05 11:41:05;;;;;;;1.02;1.02;;;15.70;85.40;;;;;;4995951;28;92468;-72
2022/04/05 11:43:43;;;;;;;1.00;1.00;;;15.80;85.00;;;;;;4993153;28;96439;-72
2022/04/05 11:46:13;;;;;;;2.75;2.20;;;15.80;85.00;;;;;;4995545;28;95402;-72
2022/04/05 11:48:56;;;;;;;3.90;2.20;;;16.10;84.60;;;;;;5008779;28;92685;-72
2022/04/05 11:51:30;;;;;;;1.20;1.20;;;16.40;84.50;;;;;;4996331;28;92467;-72
2022/04/05 11:54:03;;;;;;;1.50;1.40;;;16.60;83.70;;;;;;4995403;28;93261;-72
2022/04/05 11:56:30;;;;;;;1.38;1.27;;;16.60;81.90;;;;;;4994267;28;95614;-72
2022/04/05 11:58:59;;;;;;;2.10;1.90;;;16.60;81.50;;;;;;4994281;28;92785;-72
2022/04/05 12:01:28;;;;;;;1.77;1.65;;;16.40;81.00;;;;;;4996093;28;91807;-72
2022/04/05 12:03:59;;;;;;;1.20;1.20;;;16.20;81.20;;;;;;4995353;28;93303;-72
2022/04/05 12:06:39;;;;;;;2.28;1.63;;;15.90;81.60;;;;;;4995547;28;93015;-71
2022/04/05 12:09:26;;;;;;;1.42;1.33;;;15.70;82.40;;;;;;4994570;28;94856;-71
2022/04/05 12:11:53;;;;;;;2.42;1.30;;;15.50;82.80;;;;;;4993092;28;92493;-72
2022/04/05 12:14:29;;;;;;;2.65;1.50;;;15.30;83.00;;;;;;4994118;28;93247;-72
2022/04/05 12:16:59;;;;;;;1.73;1.63;;;15.20;83.50;;;;;;4993857;28;95716;-70
2022/04/05 12:19:29;;;;;;;1.60;1.50;;;15.00;84.40;;;;;;4995620;28;92389;-72
2022/04/05 12:22:00;;;;;;;1.70;1.60;;;14.90;84.90;;;;;;4995013;28;92476;-72
2022/04/05 12:24:30;;;;;;;1.40;1.30;;;14.80;85.50;;;;;;4995393;28;93193;-72
2022/04/05 12:26:58;;;;;;;1.60;1.50;;;14.80;85.60;;;;;;4994034;28;93030;-72
2022/04/05 12:29:29;;;;;;;1.50;1.40;;;14.80;85.40;;;;;;4995450;28;92527;-70
2022/04/05 12:32:04;;;;;;;1.40;1.30;;;14.90;85.20;;;;;;4995358;28;92527;-70
2022/04/05 12:34:33;;;;;;;1.60;1.50;;;15.10;84.70;;;;;;4992727;28;95531;-71
2022/04/05 12:37:05;;;;;;;1.70;1.60;;;15.20;84.40;;;;;;5010204;28;95386;-72
2022/04/05 12:39:40;;;;;;;2.30;2.10;;;15.40;84.00;;;;;;5008506;28;92584;-70
2022/04/05 12:42:09;;;;;;;2.65;1.67;;;15.50;82.90;;;;;;4996570;28;92409;-72
2022/04/05 12:44:48;;;;;;;1.70;1.60;;;15.70;82.60;;;;;;5014392;28;106108;-72
2022/04/05 12:47:21;;;;;;;1.52;1.42;;;15.80;82.30;;;;;;4998901;28;93109;-72
2022/04/05 12:49:52;;;;;;;1.75;1.65;;;15.90;81.60;;;;;;4997166;28;92979;-70
2022/04/05 12:52:25;;;;;;;2.00;1.90;;;15.90;81.30;;;;;;4996827;28;91772;-70
2022/04/05 12:54:53;;;;;;;2.10;2.00;;;15.90;81.00;;;;;;5016314;28;95843;-71
2022/04/05 12:57:31;;;;;;;2.08;1.88;;;15.90;81.40;;;;;;5014731;28;92958;-70
2022/04/05 13:00:20;;;;;;;2.47;2.15;;;15.90;81.50;;;;;;5014070;28;94858;-70
2022/04/05 13:02:51;;;;;;;2.25;2.00;;;15.80;81.40;;;;;;4996743;28;92530;-71
2022/04/05 13:08:28;;;;;;;2.20;2.10;;;15.50;82.40;;;;;;5014584;28;92885;-70
2022/04/05 13:10:55;;;;;;;2.70;2.50;;;15.20;83.10;;;;;;5015159;28;92448;-70